createdAt,value
2022-11-02T00:00:03.291Z,85.53
2022-11-02T00:01:03.293Z,85.22
2022-11-02T00:02:03.485Z,84.98
2022-11-02T00:03:03.761Z,85.43
2022-11-02T00:04:03.284Z,85.94
2022-11-02T00:05:03.282Z,85.84
2022-11-02T00:06:03.281Z,85.22
2022-11-02T00:07:03.277Z,85.13
2022-11-02T00:08:03.278Z,84.61
2022-11-02T00:09:03.274Z,85.28
2022-11-02T00:10:03.269Z,85.49
2022-11-02T00:11:03.270Z,85.43
2022-11-02T00:12:03.469Z,85.13
2022-11-02T00:13:03.672Z,85.90
2022-11-02T00:14:03.264Z,86.04
2022-11-02T00:15:03.280Z,86.21
2022-11-02T00:16:03.257Z,87.02
2022-11-02T00:17:03.260Z,87.02
2022-11-02T00:19:03.255Z,85.90
2022-11-02T00:20:03.253Z,86.96
2022-11-02T00:21:03.252Z,87.47
2022-11-02T00:22:03.249Z,88.04
2022-11-02T00:23:03.568Z,88.34
2022-11-02T00:24:03.242Z,88.34
2022-11-02T00:25:03.240Z,89.67
2022-11-02T00:26:03.242Z,90.38
2022-11-02T00:27:03.237Z,90.48
2022-11-02T00:28:03.234Z,90.89
2022-11-02T00:29:03.236Z,91.55
2022-11-02T00:30:03.233Z,91.71
2022-11-02T00:31:03.236Z,91.61
2022-11-02T00:32:03.229Z,91.44
2022-11-02T00:33:03.611Z,91.61
2022-11-02T00:34:03.244Z,91.71
2022-11-02T00:35:03.224Z,91.14
2022-11-02T00:36:03.221Z,91.55
2022-11-02T00:37:03.233Z,91.85
2022-11-02T00:38:03.643Z,91.14
2022-11-02T00:39:03.217Z,91.75
2022-11-02T00:40:03.218Z,91.96
2022-11-02T00:41:03.213Z,92.26
2022-11-02T00:42:03.213Z,91.24
2022-11-02T00:43:03.209Z,91.44
2022-11-02T00:44:03.205Z,91.35
2022-11-02T00:45:03.205Z,91.85
2022-11-02T00:46:03.205Z,91.96
2022-11-02T00:47:03.201Z,92.05
2022-11-02T00:48:03.507Z,92.36
2022-11-02T00:49:03.196Z,92.05
2022-11-02T00:50:03.220Z,91.96
2022-11-02T00:51:03.193Z,92.67
2022-11-02T00:52:03.194Z,92.26
2022-11-02T00:53:03.189Z,92.57
2022-11-02T00:54:03.190Z,93.28
2022-11-02T00:55:03.186Z,92.87
2022-11-02T00:56:03.189Z,92.87
2022-11-02T00:57:03.190Z,92.16
2022-11-02T00:58:03.482Z,91.75
2022-11-02T00:59:03.180Z,91.14
2022-11-02T01:00:03.182Z,91.85
2022-11-02T01:01:03.217Z,91.96
2022-11-02T01:02:03.522Z,91.55
2022-11-02T01:03:03.177Z,91.65
2022-11-02T01:04:03.174Z,91.24
2022-11-02T01:05:03.169Z,91.55
2022-11-02T01:06:03.189Z,91.75
2022-11-02T01:07:03.175Z,91.75
2022-11-02T01:08:03.561Z,91.55
2022-11-02T01:09:03.163Z,91.55
2022-11-02T01:10:03.163Z,91.35
2022-11-02T01:11:03.166Z,91.85
2022-11-02T01:12:03.158Z,91.65
2022-11-02T01:13:03.151Z,91.85
2022-11-02T01:14:03.155Z,91.44
2022-11-02T01:15:03.150Z,91.96
2022-11-02T01:16:03.151Z,91.96
2022-11-02T01:17:03.147Z,91.85
2022-11-02T01:18:03.734Z,90.94
2022-11-02T01:19:03.141Z,91.96
2022-11-02T01:20:03.142Z,91.75
2022-11-02T01:21:03.140Z,91.55
2022-11-02T01:22:03.157Z,91.85
2022-11-02T01:23:03.134Z,91.65
2022-11-02T01:24:03.137Z,91.44
2022-11-02T01:25:03.135Z,91.55
2022-11-02T01:26:03.133Z,91.24
2022-11-02T01:27:03.131Z,91.44
2022-11-02T01:28:03.345Z,91.85
2022-11-02T01:29:03.124Z,91.85
2022-11-02T01:30:03.122Z,91.44
2022-11-02T01:31:03.119Z,91.03
2022-11-02T01:32:03.121Z,91.75
2022-11-02T01:33:03.118Z,91.75
2022-11-02T01:34:03.121Z,91.75
2022-11-02T01:35:03.116Z,92.05
2022-11-02T01:36:03.114Z,92.26
2022-11-02T01:37:03.114Z,91.85
2022-11-02T01:38:03.486Z,91.24
2022-11-02T01:39:03.115Z,91.24
2022-11-02T01:40:03.105Z,91.75
2022-11-02T01:41:03.104Z,91.65
2022-11-02T01:42:03.105Z,91.75
2022-11-02T01:43:03.101Z,91.14
2022-11-02T01:44:03.103Z,91.55
2022-11-02T01:45:03.096Z,91.55
2022-11-02T01:46:03.096Z,91.65
2022-11-02T01:47:03.092Z,90.53
2022-11-02T01:48:03.302Z,90.53
2022-11-02T01:49:03.089Z,90.12
2022-11-02T01:50:03.089Z,90.53
2022-11-02T01:51:03.087Z,91.44
2022-11-02T01:52:03.091Z,90.83
2022-11-02T01:53:03.085Z,91.03
2022-11-02T01:54:03.100Z,90.94
2022-11-02T01:55:03.081Z,91.03
2022-11-02T01:56:03.078Z,91.40
2022-11-02T01:57:03.075Z,91.20
2022-11-02T01:58:03.411Z,91.81
2022-11-02T01:59:03.072Z,91.50
2022-11-02T02:00:03.094Z,91.91
2022-11-02T02:01:03.072Z,91.71
2022-11-02T02:02:03.191Z,91.71
2022-11-02T02:03:03.064Z,91.44
2022-11-02T02:04:03.067Z,90.89
2022-11-02T02:05:03.064Z,90.79
2022-11-02T02:06:03.064Z,91.50
2022-11-02T02:07:03.361Z,91.40
2022-11-02T02:08:03.489Z,91.55
2022-11-02T02:09:03.056Z,91.30
2022-11-02T02:10:03.072Z,91.09
2022-11-02T02:11:03.050Z,91.24
2022-11-02T02:12:03.052Z,91.91
2022-11-02T02:13:03.050Z,91.65
2022-11-02T02:14:03.051Z,90.32
2022-11-02T02:15:03.042Z,90.69
2022-11-02T02:16:03.046Z,91.09
2022-11-02T02:17:03.046Z,91.35
2022-11-02T02:18:03.383Z,91.50
2022-11-02T02:19:03.038Z,90.38
2022-11-02T02:20:03.036Z,90.22
2022-11-02T02:21:03.036Z,89.77
2022-11-02T02:22:03.044Z,90.38
2022-11-02T02:23:03.031Z,90.38
2022-11-02T02:24:03.032Z,90.28
2022-11-02T02:25:03.030Z,90.89
2022-11-02T02:26:03.044Z,91.50
2022-11-02T02:27:03.023Z,91.03
2022-11-02T02:28:03.338Z,90.69
2022-11-02T02:29:03.021Z,90.22
2022-11-02T02:30:03.025Z,90.28
2022-11-02T02:31:03.018Z,90.28
2022-11-02T02:32:03.019Z,90.28
2022-11-02T02:33:03.017Z,90.38
2022-11-02T02:34:03.016Z,91.09
2022-11-02T02:35:03.013Z,91.40
2022-11-02T02:36:03.021Z,90.42
2022-11-02T02:37:03.005Z,90.32
2022-11-02T02:38:03.376Z,90.28
2022-11-02T02:39:03.010Z,90.38
2022-11-02T02:40:03.006Z,90.08
2022-11-02T02:41:03.003Z,90.22
2022-11-02T02:42:03.015Z,89.97
2022-11-02T02:43:02.997Z,90.42
2022-11-02T02:44:02.994Z,90.48
2022-11-02T02:45:02.999Z,90.42
2022-11-02T02:46:02.997Z,90.53
2022-11-02T02:47:02.992Z,90.53
2022-11-02T02:48:03.326Z,89.97
2022-11-02T02:49:02.988Z,90.63
2022-11-02T02:50:02.988Z,90.53
2022-11-02T02:51:02.981Z,90.01
2022-11-02T02:52:02.980Z,89.61
2022-11-02T02:53:02.978Z,90.01
2022-11-02T02:54:02.981Z,90.12
2022-11-02T02:55:02.973Z,89.81
2022-11-02T02:56:02.975Z,89.81
2022-11-02T02:57:02.973Z,90.32
2022-11-02T02:58:03.365Z,90.94
2022-11-02T02:59:02.970Z,91.65
2022-11-02T03:00:02.972Z,90.32
2022-11-02T03:01:02.965Z,90.32
2022-11-02T03:02:03.151Z,90.53
2022-11-02T03:03:02.960Z,91.44
2022-11-02T03:04:02.959Z,91.24
2022-11-02T03:05:02.957Z,90.94
2022-11-02T03:06:02.962Z,90.53
2022-11-02T03:07:02.956Z,90.63
2022-11-02T03:08:03.319Z,90.16
2022-11-02T03:09:02.955Z,90.57
2022-11-02T03:10:02.953Z,91.03
2022-11-02T03:11:02.947Z,90.94
2022-11-02T03:12:02.949Z,91.96
2022-11-02T03:13:02.949Z,91.55
2022-11-02T03:14:02.963Z,91.96
2022-11-02T03:15:02.954Z,90.36
2022-11-02T03:16:02.938Z,90.47
2022-11-02T03:17:02.943Z,90.47
2022-11-02T03:18:03.574Z,90.83
2022-11-02T03:19:02.933Z,91.49
2022-11-02T03:20:02.945Z,91.79
2022-11-02T03:21:02.929Z,91.18
2022-11-02T03:22:02.938Z,91.03
2022-11-02T03:23:02.930Z,91.55
2022-11-02T03:24:02.927Z,91.75
2022-11-02T03:25:02.923Z,91.35
2022-11-02T03:26:02.921Z,91.59
2022-11-02T03:27:02.919Z,90.94
2022-11-02T03:28:03.184Z,90.36
2022-11-02T03:29:02.916Z,90.32
2022-11-02T03:30:02.941Z,89.86
2022-11-02T03:31:02.913Z,90.47
2022-11-02T03:32:02.911Z,90.73
2022-11-02T03:33:02.910Z,91.85
2022-11-02T03:34:02.909Z,90.22
2022-11-02T03:35:02.906Z,90.47
2022-11-02T03:36:02.902Z,90.42
2022-11-02T03:37:02.947Z,90.63
2022-11-02T03:38:03.322Z,90.63
2022-11-02T03:39:02.899Z,91.44
2022-11-02T03:40:02.906Z,91.75
2022-11-02T03:41:02.894Z,90.63
2022-11-02T03:42:02.898Z,90.42
2022-11-02T03:43:02.892Z,91.03
2022-11-02T03:44:02.892Z,91.44
2022-11-02T03:45:02.893Z,91.96
2022-11-02T03:46:02.901Z,91.03
2022-11-02T03:47:02.888Z,90.73
2022-11-02T03:48:03.404Z,90.22
2022-11-02T03:49:06.039Z,90.63
2022-11-02T03:50:02.882Z,90.32
2022-11-02T03:51:02.875Z,91.14
2022-11-02T03:52:02.876Z,90.94
2022-11-02T03:53:02.874Z,91.24
2022-11-02T03:54:02.877Z,91.96
2022-11-02T03:55:02.883Z,91.03
2022-11-02T03:56:02.870Z,91.55
2022-11-02T03:58:03.191Z,90.42
2022-11-02T03:59:02.861Z,90.53
2022-11-02T04:00:02.873Z,90.42
2022-11-02T04:01:02.861Z,89.97
2022-11-02T04:02:02.980Z,89.87
2022-11-02T04:03:02.935Z,89.47
2022-11-02T04:04:02.869Z,88.90
2022-11-02T04:05:02.862Z,87.94
2022-11-02T04:06:02.861Z,88.96
2022-11-02T04:07:02.847Z,88.45
2022-11-02T04:08:03.251Z,87.94
2022-11-02T04:09:02.842Z,87.94
2022-11-02T04:10:02.859Z,88.04
2022-11-02T04:11:02.841Z,87.12
2022-11-02T04:12:03.042Z,85.69
2022-11-02T04:13:02.835Z,85.60
2022-11-02T04:14:02.848Z,85.69
2022-11-02T04:15:02.835Z,86.41
2022-11-02T04:16:02.834Z,86.21
2022-11-02T04:17:02.829Z,86.41
2022-11-02T04:18:03.203Z,86.41
2022-11-02T04:19:02.827Z,86.16
2022-11-02T04:20:02.828Z,86.71
2022-11-02T04:21:02.823Z,86.57
2022-11-02T04:22:02.826Z,85.90
2022-11-02T04:23:02.822Z,85.90
2022-11-02T04:24:02.846Z,86.37
2022-11-02T04:25:02.827Z,85.96
2022-11-02T04:26:02.818Z,85.35
2022-11-02T04:27:02.820Z,86.41
2022-11-02T04:28:03.028Z,86.30
2022-11-02T04:29:02.806Z,86.41
2022-11-02T04:30:02.828Z,86.77
2022-11-02T04:31:02.803Z,86.88
2022-11-02T04:32:02.813Z,86.37
2022-11-02T04:33:02.800Z,86.68
2022-11-02T04:34:02.817Z,86.37
2022-11-02T04:35:02.797Z,86.92
2022-11-02T04:36:02.796Z,85.14
2022-11-02T04:37:02.792Z,85.96
2022-11-02T04:38:03.131Z,86.47
2022-11-02T04:39:02.790Z,85.75
2022-11-02T04:40:02.794Z,86.47
2022-11-02T04:41:02.785Z,87.29
2022-11-02T04:42:02.783Z,86.77
2022-11-02T04:43:02.781Z,87.49
2022-11-02T04:44:02.779Z,87.59
2022-11-02T04:45:02.784Z,86.88
2022-11-02T04:46:02.782Z,87.59
2022-11-02T04:47:02.773Z,87.18
2022-11-02T04:48:03.217Z,86.88
2022-11-02T04:49:02.774Z,86.16
2022-11-02T04:50:02.791Z,86.88
2022-11-02T04:51:02.774Z,87.08
2022-11-02T04:52:02.778Z,87.29
2022-11-02T04:53:02.761Z,87.18
2022-11-02T04:54:02.764Z,87.18
2022-11-02T04:55:02.758Z,86.88
2022-11-02T04:56:02.757Z,86.37
2022-11-02T04:57:02.765Z,86.57
2022-11-02T04:58:03.119Z,86.88
2022-11-02T04:59:02.754Z,87.49
2022-11-02T05:00:02.752Z,86.77
2022-11-02T05:01:02.748Z,86.68
2022-11-02T05:02:02.927Z,86.16
2022-11-02T05:03:03.914Z,86.88
2022-11-02T05:04:02.741Z,86.57
2022-11-02T05:05:02.740Z,87.08
2022-11-02T05:06:02.759Z,88.00
2022-11-02T05:07:02.747Z,87.49
2022-11-02T05:08:03.147Z,87.08
2022-11-02T05:09:02.735Z,86.27
2022-11-02T05:10:02.744Z,86.27
2022-11-02T05:11:02.732Z,87.59
2022-11-02T05:12:02.732Z,86.57
2022-11-02T05:13:02.730Z,87.38
2022-11-02T05:14:02.727Z,87.49
2022-11-02T05:15:02.724Z,86.57
2022-11-02T05:16:02.720Z,87.08
2022-11-02T05:17:02.721Z,86.88
2022-11-02T05:18:03.213Z,87.59
2022-11-02T05:19:04.534Z,87.69
2022-11-02T05:20:02.718Z,87.29
2022-11-02T05:21:02.714Z,87.53
2022-11-02T05:22:02.729Z,86.98
2022-11-02T05:23:03.078Z,87.49
2022-11-02T05:24:02.711Z,87.08
2022-11-02T05:25:02.707Z,86.37
2022-11-02T05:26:02.702Z,85.05
2022-11-02T05:27:02.733Z,85.08
2022-11-02T05:28:02.697Z,84.84
2022-11-02T05:29:02.836Z,85.25
2022-11-02T05:30:02.699Z,85.45
2022-11-02T05:31:02.691Z,85.35
2022-11-02T05:32:02.692Z,85.25
2022-11-02T05:33:03.284Z,86.27
2022-11-02T05:34:02.687Z,86.37
2022-11-02T05:35:02.689Z,86.47
2022-11-02T05:36:02.684Z,85.69
2022-11-02T05:37:02.682Z,86.27
2022-11-02T05:38:02.694Z,87.18
2022-11-02T05:39:02.677Z,87.43
2022-11-02T05:40:02.679Z,86.77
2022-11-02T05:41:02.679Z,87.08
2022-11-02T05:42:02.673Z,86.82
2022-11-02T05:43:03.126Z,87.59
2022-11-02T05:44:02.669Z,86.41
2022-11-02T05:45:02.668Z,86.88
2022-11-02T05:46:02.666Z,86.37
2022-11-02T05:47:02.667Z,86.61
2022-11-02T05:48:02.658Z,86.71
2022-11-02T05:49:02.659Z,86.00
2022-11-02T05:50:02.656Z,86.06
2022-11-02T05:51:02.656Z,86.21
2022-11-02T05:52:02.650Z,86.37
2022-11-02T05:53:02.879Z,85.60
2022-11-02T05:54:02.666Z,86.47
2022-11-02T05:55:02.645Z,86.27
2022-11-02T05:56:02.646Z,85.66
2022-11-02T05:57:02.647Z,85.25
2022-11-02T05:58:02.652Z,84.84
2022-11-02T05:59:02.640Z,85.28
2022-11-02T06:00:02.637Z,85.05
2022-11-02T06:01:02.644Z,84.64
2022-11-02T06:02:02.673Z,85.35
2022-11-02T06:03:03.064Z,85.35
2022-11-02T06:04:02.659Z,83.86
2022-11-02T06:05:02.713Z,84.88
2022-11-02T06:06:02.627Z,85.25
2022-11-02T06:07:02.627Z,85.05
2022-11-02T06:08:02.627Z,85.55
2022-11-02T06:09:06.899Z,84.43
2022-11-02T06:10:02.646Z,85.08
2022-11-02T06:11:02.617Z,85.55
2022-11-02T06:12:02.824Z,85.75
2022-11-02T06:13:03.009Z,85.39
2022-11-02T06:14:02.610Z,85.25
2022-11-02T06:15:02.619Z,85.05
2022-11-02T06:16:02.604Z,84.47
2022-11-02T06:17:02.606Z,85.08
2022-11-02T06:18:02.604Z,84.47
2022-11-02T06:19:02.704Z,85.08
2022-11-02T06:20:02.602Z,85.19
2022-11-02T06:21:02.598Z,86.10
2022-11-02T06:22:02.635Z,85.39
2022-11-02T06:23:02.991Z,85.19
2022-11-02T06:24:02.615Z,86.41
2022-11-02T06:25:02.592Z,86.21
2022-11-02T06:26:02.614Z,85.28
2022-11-02T06:27:02.589Z,85.90
2022-11-02T06:28:02.582Z,85.60
2022-11-02T06:29:02.588Z,85.60
2022-11-02T06:30:02.585Z,85.28
2022-11-02T06:31:02.576Z,85.90
2022-11-02T06:32:02.583Z,85.28
2022-11-02T06:33:07.032Z,85.49
2022-11-02T06:34:02.573Z,86.21
2022-11-02T06:35:02.568Z,85.43
2022-11-02T06:36:02.566Z,84.98
2022-11-02T06:37:02.564Z,85.28
2022-11-02T06:38:02.566Z,85.69
2022-11-02T06:39:02.567Z,85.43
2022-11-02T06:40:02.561Z,85.94
2022-11-02T06:41:02.565Z,85.80
2022-11-02T06:42:02.573Z,85.90
2022-11-02T06:43:15.884Z,87.12
2022-11-02T06:44:02.554Z,86.24
2022-11-02T06:45:02.553Z,86.21
2022-11-02T06:46:02.551Z,86.00
2022-11-02T06:47:02.548Z,85.19
2022-11-02T06:48:02.547Z,85.33
2022-11-02T06:49:02.543Z,85.33
2022-11-02T06:50:02.540Z,85.80
2022-11-02T06:51:02.544Z,85.19
2022-11-02T06:52:02.535Z,85.08
2022-11-02T06:53:02.878Z,84.67
2022-11-02T06:54:08.352Z,84.88
2022-11-02T06:55:02.528Z,85.19
2022-11-02T06:56:02.541Z,85.84
2022-11-02T06:57:02.543Z,86.00
2022-11-02T06:58:02.550Z,85.90
2022-11-02T06:59:02.520Z,85.74
2022-11-02T07:00:02.715Z,85.60
2022-11-02T07:01:02.755Z,85.53
2022-11-02T07:02:02.704Z,85.53
2022-11-02T07:03:02.963Z,85.28
2022-11-02T07:04:02.514Z,85.39
2022-11-02T07:05:02.511Z,85.33
2022-11-02T07:06:02.520Z,85.08
2022-11-02T07:07:02.508Z,86.10
2022-11-02T07:08:02.514Z,86.51
2022-11-02T07:09:02.503Z,85.84
2022-11-02T07:10:02.521Z,86.61
2022-11-02T07:11:02.498Z,85.74
2022-11-02T07:12:02.845Z,87.12
2022-11-02T07:13:02.870Z,86.51
2022-11-02T07:14:02.512Z,86.30
2022-11-02T07:15:02.490Z,86.21
2022-11-02T07:16:02.484Z,86.71
2022-11-02T07:17:02.484Z,87.12
2022-11-02T07:18:02.485Z,87.84
2022-11-02T07:19:02.482Z,87.06
2022-11-02T07:20:02.481Z,86.30
2022-11-02T07:21:02.504Z,86.92
2022-11-02T07:22:02.486Z,86.92
2022-11-02T07:23:02.715Z,86.61
2022-11-02T07:24:02.472Z,86.35
2022-11-02T07:25:02.472Z,85.60
2022-11-02T07:26:02.470Z,85.28
2022-11-02T07:27:02.466Z,84.11
2022-11-02T07:28:02.465Z,84.47
2022-11-02T07:29:02.463Z,84.78
2022-11-02T07:30:02.479Z,85.49
2022-11-02T07:31:02.458Z,86.61
2022-11-02T07:32:02.454Z,85.80
2022-11-02T07:33:02.759Z,86.65
2022-11-02T07:34:02.461Z,85.49
2022-11-02T07:35:02.451Z,85.39
2022-11-02T07:36:02.451Z,85.80
2022-11-02T07:37:02.458Z,85.69
2022-11-02T07:38:02.445Z,85.19
2022-11-02T07:39:02.439Z,85.39
2022-11-02T07:40:02.436Z,84.58
2022-11-02T07:41:02.452Z,84.06
2022-11-02T07:42:02.547Z,83.35
2022-11-02T07:43:02.702Z,85.22
2022-11-02T07:44:02.430Z,85.74
2022-11-02T07:45:02.433Z,86.10
2022-11-02T07:46:02.451Z,84.06
2022-11-02T07:47:02.423Z,84.47
2022-11-02T07:48:02.424Z,85.19
2022-11-02T07:49:02.420Z,83.45
2022-11-02T07:50:02.419Z,83.56
2022-11-02T07:51:02.420Z,83.45
2022-11-02T07:52:02.415Z,84.88
2022-11-02T07:53:02.685Z,84.88
2022-11-02T07:54:02.410Z,83.65
2022-11-02T07:55:02.408Z,83.35
2022-11-02T07:56:02.407Z,83.35
2022-11-02T07:57:02.406Z,83.35
2022-11-02T07:58:02.416Z,83.86
2022-11-02T07:59:02.401Z,85.60
2022-11-02T08:00:02.407Z,85.14
2022-11-02T08:01:02.399Z,84.17
2022-11-02T08:02:02.534Z,84.12
2022-11-02T08:03:02.776Z,84.06
2022-11-02T08:04:02.389Z,84.37
2022-11-02T08:05:02.390Z,84.17
2022-11-02T08:06:02.425Z,84.33
2022-11-02T08:07:02.382Z,83.45
2022-11-02T08:08:02.731Z,84.78
2022-11-02T08:09:02.382Z,84.17
2022-11-02T08:10:02.377Z,84.06
2022-11-02T08:11:02.379Z,84.58
2022-11-02T08:12:02.372Z,85.25
2022-11-02T08:13:02.375Z,85.28
2022-11-02T08:14:02.371Z,85.05
2022-11-02T08:15:07.415Z,85.28
2022-11-02T08:16:02.363Z,85.39
2022-11-02T08:17:02.362Z,85.19
2022-11-02T08:18:02.849Z,85.28
2022-11-02T08:19:02.360Z,83.42
2022-11-02T08:20:02.356Z,83.21
2022-11-02T08:21:02.361Z,85.45
2022-11-02T08:22:02.356Z,85.55
2022-11-02T08:23:02.360Z,85.19
2022-11-02T08:24:02.348Z,85.14
2022-11-02T08:25:02.457Z,84.27
2022-11-02T08:26:02.344Z,83.76
2022-11-02T08:27:02.345Z,83.42
2022-11-02T08:28:02.738Z,84.23
2022-11-02T08:29:02.341Z,84.47
2022-11-02T08:30:02.364Z,83.72
2022-11-02T08:31:02.337Z,83.42
2022-11-02T08:32:02.332Z,83.56
2022-11-02T08:33:02.330Z,84.67
2022-11-02T08:34:02.348Z,84.17
2022-11-02T08:35:02.327Z,83.62
2022-11-02T08:36:02.323Z,83.42
2022-11-02T08:37:02.326Z,85.35
2022-11-02T08:38:02.761Z,83.42
2022-11-02T08:39:02.318Z,83.31
2022-11-02T08:40:02.317Z,83.42
2022-11-02T08:41:02.318Z,84.53
2022-11-02T08:42:02.331Z,85.05
2022-11-02T08:43:02.310Z,85.14
2022-11-02T08:44:02.307Z,84.29
2022-11-02T08:45:02.308Z,83.01
2022-11-02T08:46:14.874Z,83.42
2022-11-02T08:47:04.263Z,83.31
2022-11-02T08:48:02.569Z,83.51
2022-11-02T08:49:02.299Z,83.51
2022-11-02T08:50:02.320Z,84.90
2022-11-02T08:51:02.297Z,83.51
2022-11-02T08:52:02.296Z,83.07
2022-11-02T08:53:02.291Z,83.07
2022-11-02T08:54:02.287Z,83.07
2022-11-02T08:55:02.295Z,84.19
2022-11-02T08:56:02.288Z,83.37
2022-11-02T08:57:02.281Z,81.99
2022-11-02T08:58:02.613Z,83.58
2022-11-02T08:59:02.275Z,82.29
2022-11-02T09:00:02.277Z,83.27
2022-11-02T09:01:02.277Z,81.74
2022-11-02T09:02:02.352Z,83.48
2022-11-02T09:03:02.329Z,84.59
2022-11-02T09:04:02.267Z,82.40
2022-11-02T09:05:02.266Z,82.46
2022-11-02T09:06:02.284Z,83.27
2022-11-02T09:07:02.262Z,84.50
2022-11-02T09:08:02.575Z,84.80
2022-11-02T09:09:02.260Z,83.37
2022-11-02T09:10:02.255Z,82.05
2022-11-02T09:11:02.253Z,81.27
2022-11-02T09:12:02.251Z,83.58
2022-11-02T09:13:02.608Z,82.26
2022-11-02T09:14:02.391Z,82.90
2022-11-02T09:15:02.260Z,82.46
2022-11-02T09:16:02.242Z,83.37
2022-11-02T09:17:02.243Z,83.89
2022-11-02T09:18:02.590Z,83.48
2022-11-02T09:19:02.237Z,82.97
2022-11-02T09:20:02.259Z,82.05
2022-11-02T09:21:02.233Z,82.87
2022-11-02T09:22:05.621Z,83.58
2022-11-02T09:23:02.228Z,83.07
2022-11-02T09:24:02.231Z,82.87
2022-11-02T09:25:02.226Z,83.48
2022-11-02T09:26:02.228Z,83.21
2022-11-02T09:27:02.248Z,83.17
2022-11-02T09:28:02.234Z,82.15
2022-11-02T09:29:02.214Z,82.66
2022-11-02T09:30:02.219Z,81.88
2022-11-02T09:31:03.760Z,82.66
2022-11-02T09:32:02.219Z,82.26
2022-11-02T09:33:02.545Z,81.99
2022-11-02T09:34:02.207Z,82.29
2022-11-02T09:35:02.201Z,81.54
2022-11-02T09:36:02.201Z,82.66
2022-11-02T09:37:02.197Z,82.26
2022-11-02T09:38:02.248Z,83.17
2022-11-02T09:39:02.198Z,83.48
2022-11-02T09:40:02.204Z,83.68
2022-11-02T09:41:02.196Z,82.46
2022-11-02T09:42:02.194Z,81.04
2022-11-02T09:43:02.570Z,81.13
2022-11-02T09:44:02.187Z,81.13
2022-11-02T09:45:02.224Z,81.54
2022-11-02T09:46:02.181Z,80.52
2022-11-02T09:47:49.554Z,80.93
2022-11-02T09:48:24.914Z,81.44
2022-11-02T09:49:02.178Z,81.74
2022-11-02T09:50:02.173Z,80.63
2022-11-02T09:51:02.517Z,81.34
2022-11-02T09:52:02.168Z,81.24
2022-11-02T09:53:02.530Z,81.54
2022-11-02T09:54:02.189Z,82.46
2022-11-02T09:55:02.158Z,81.95
2022-11-02T09:56:02.160Z,83.07
2022-11-02T09:57:02.155Z,81.65
2022-11-02T09:58:02.468Z,81.85
2022-11-02T09:59:02.151Z,80.93
2022-11-02T10:00:02.148Z,82.46
2022-11-02T10:01:02.154Z,81.74
2022-11-02T10:02:02.148Z,82.76
2022-11-02T10:03:02.227Z,81.24
2022-11-02T10:04:02.147Z,82.05
2022-11-02T10:05:02.139Z,80.11
2022-11-02T10:06:02.140Z,80.22
2022-11-02T10:07:02.139Z,82.05
2022-11-02T10:08:02.341Z,82.42
2022-11-02T10:09:02.130Z,83.48
2022-11-02T10:10:02.148Z,83.23
2022-11-02T10:11:07.739Z,82.32
2022-11-02T10:12:02.128Z,80.18
2022-11-02T10:13:02.331Z,79.77
2022-11-02T10:14:02.126Z,81.20
2022-11-02T10:15:02.122Z,82.21
2022-11-02T10:16:02.121Z,80.59
2022-11-02T10:17:02.113Z,81.20
2022-11-02T10:18:02.110Z,81.30
2022-11-02T10:19:02.112Z,79.06
2022-11-02T10:20:02.107Z,80.99
2022-11-02T10:21:02.103Z,79.77
2022-11-02T10:22:02.111Z,81.71
2022-11-02T10:23:02.424Z,80.08
2022-11-02T10:24:02.098Z,80.29
2022-11-02T10:25:02.098Z,80.29
2022-11-02T10:26:02.116Z,79.68
2022-11-02T10:27:02.093Z,79.88
2022-11-02T10:28:02.181Z,78.96
2022-11-02T10:29:02.096Z,79.27
2022-11-02T10:30:02.097Z,79.47
2022-11-02T10:31:02.087Z,78.96
2022-11-02T10:32:02.086Z,78.25
2022-11-02T10:33:02.343Z,78.55
2022-11-02T10:34:02.081Z,78.76
2022-11-02T10:35:25.489Z,77.33
2022-11-02T10:36:18.003Z,77.84
2022-11-02T10:37:02.077Z,77.74
2022-11-02T10:38:02.391Z,78.49
2022-11-02T10:39:02.067Z,78.28
2022-11-02T10:40:02.069Z,77.98
2022-11-02T10:41:02.069Z,78.89
2022-11-02T10:42:02.092Z,79.00
2022-11-02T10:43:02.060Z,80.42
2022-11-02T10:44:02.058Z,79.91
2022-11-02T10:45:02.057Z,79.88
2022-11-02T10:46:02.061Z,81.34
2022-11-02T10:47:02.052Z,80.59
2022-11-02T10:48:02.362Z,80.69
2022-11-02T10:49:02.045Z,79.47
2022-11-02T10:50:02.046Z,77.53
2022-11-02T10:51:02.043Z,78.05
2022-11-02T10:52:02.041Z,78.96
2022-11-02T10:53:20.407Z,78.25
2022-11-02T10:54:02.106Z,79.37
2022-11-02T10:55:02.044Z,80.18
2022-11-02T10:56:02.033Z,79.63
2022-11-02T10:57:02.031Z,79.37
2022-11-02T10:58:02.349Z,79.77
2022-11-02T10:59:02.031Z,77.70
2022-11-02T11:00:02.026Z,75.98
2022-11-02T11:01:02.063Z,76.48
2022-11-02T11:02:02.058Z,78.62
2022-11-02T11:03:02.027Z,79.33
2022-11-02T11:04:02.023Z,78.31
2022-11-02T11:05:02.023Z,76.59
2022-11-02T11:06:02.013Z,78.01
2022-11-02T11:07:02.009Z,79.74
2022-11-02T11:08:02.368Z,79.74
2022-11-02T11:09:02.005Z,78.52
2022-11-02T11:10:02.032Z,80.96
2022-11-02T11:11:02.002Z,79.23
2022-11-02T11:12:02.003Z,76.99
2022-11-02T11:13:02.021Z,75.87
2022-11-02T11:16:01.993Z,75.87
2022-11-02T11:20:05.996Z,75.37
2022-11-02T11:21:01.984Z,75.26
2022-11-02T11:22:01.987Z,75.16
2022-11-02T11:23:02.344Z,75.98
2022-11-02T11:24:02.051Z,77.50
2022-11-02T11:25:01.980Z,76.18
2022-11-02T11:26:01.984Z,76.99
2022-11-02T11:27:01.973Z,76.68
2022-11-02T11:28:02.231Z,75.57
2022-11-02T11:29:01.970Z,76.79
2022-11-02T11:30:01.987Z,75.16
2022-11-02T11:31:01.986Z,75.67
2022-11-02T11:32:01.969Z,76.68
2022-11-02T11:33:01.962Z,76.89
2022-11-02T11:34:01.961Z,77.50
2022-11-02T11:35:01.958Z,78.92
2022-11-02T11:36:01.956Z,77.29
2022-11-02T11:37:01.957Z,75.98
2022-11-02T11:38:02.244Z,76.04
2022-11-02T11:39:01.956Z,76.18
2022-11-02T11:40:01.951Z,78.01
2022-11-02T11:41:01.945Z,79.02
2022-11-02T11:42:01.948Z,78.62
2022-11-02T11:43:02.566Z,77.09
2022-11-02T11:44:01.967Z,75.16
2022-11-02T11:45:01.937Z,76.89
2022-11-02T11:46:05.910Z,76.68
2022-11-02T11:47:01.930Z,76.04
2022-11-02T11:48:02.212Z,75.57
2022-11-02T11:49:01.929Z,75.87
2022-11-02T11:50:12.895Z,76.79
2022-11-02T11:51:01.931Z,78.21
2022-11-02T11:52:01.924Z,77.47
2022-11-02T11:53:02.057Z,76.79
2022-11-02T11:54:01.922Z,77.20
2022-11-02T11:55:01.917Z,76.18
2022-11-02T11:56:01.917Z,75.53
2022-11-02T11:57:01.914Z,76.55
2022-11-02T11:58:02.125Z,77.47
2022-11-02T11:59:01.919Z,78.08
2022-11-02T12:00:01.963Z,77.87
2022-11-02T12:01:07.422Z,77.63
2022-11-02T12:02:02.820Z,77.33
2022-11-02T12:03:02.210Z,75.19
2022-11-02T12:04:01.914Z,74.88
2022-11-02T12:05:01.900Z,74.18
2022-11-02T12:06:01.897Z,74.79
2022-11-02T12:07:01.893Z,75.70
2022-11-02T12:08:01.904Z,74.38
2022-11-02T12:09:04.650Z,72.55
2022-11-02T12:10:01.891Z,73.53
2022-11-02T12:11:01.889Z,72.72
2022-11-02T12:12:01.887Z,71.30
2022-11-02T12:13:02.066Z,71.91
2022-11-02T12:14:01.888Z,73.53
2022-11-02T12:15:06.574Z,72.31
2022-11-02T12:16:01.880Z,72.11
2022-11-02T12:17:01.877Z,74.55
2022-11-02T12:18:02.145Z,76.17
2022-11-02T12:19:01.881Z,73.43
2022-11-02T12:20:01.871Z,73.53
2022-11-02T12:21:01.870Z,73.83
2022-11-02T12:22:01.867Z,74.85
2022-11-02T12:23:01.987Z,73.13
2022-11-02T12:24:02.314Z,74.95
2022-11-02T12:25:01.861Z,76.17
2022-11-02T12:26:04.949Z,75.67
2022-11-02T12:27:01.864Z,76.82
2022-11-02T12:28:01.860Z,74.24
2022-11-02T12:29:01.852Z,75.46
2022-11-02T12:30:01.854Z,75.29
2022-11-02T12:31:01.849Z,74.95
2022-11-02T12:32:01.848Z,75.09
2022-11-02T12:33:02.137Z,73.97
2022-11-02T12:34:01.865Z,75.80
2022-11-02T12:35:27.393Z,76.92
2022-11-02T12:36:01.843Z,76.82
2022-11-02T12:38:01.986Z,76.01
2022-11-02T12:39:01.835Z,75.49
2022-11-02T12:40:01.833Z,76.72
2022-11-02T12:41:01.836Z,77.02
2022-11-02T12:42:01.836Z,76.86
2022-11-02T12:43:02.061Z,76.55
2022-11-02T12:44:01.830Z,76.21
2022-11-02T12:45:01.828Z,77.12
2022-11-02T12:46:01.833Z,76.65
2022-11-02T12:47:01.826Z,76.72
2022-11-02T12:48:01.848Z,77.97
2022-11-02T12:49:01.822Z,77.43
2022-11-02T12:50:01.839Z,77.26
2022-11-02T12:51:01.816Z,78.44
2022-11-02T12:52:01.816Z,79.25
2022-11-02T12:53:02.154Z,78.75
2022-11-02T12:54:01.810Z,77.77
2022-11-02T12:55:01.812Z,78.17
2022-11-02T12:56:01.806Z,78.04
2022-11-02T12:57:01.814Z,78.17
2022-11-02T12:58:02.008Z,77.56
2022-11-02T12:59:01.810Z,76.55
2022-11-02T13:00:01.800Z,77.47